Main page
METAR-TAF:

METAR-TAF

Airports :

Santorini, Greece

Santorini (Thira) National Airport

latitude: 36-24N, longitude: 025-29E, elevation: 38 m

Current weather observation

The report was made 42 minutes ago, at 13:20 UTC
Wind 4 kt from the South/Southeast
Temperature 23°C
Humidity 61%
Pressure 1016 hPa
Visibility 10 km or more
Few clouds at a height of 2500 ft

METAR: LGSR 211320Z 16004KT 9999 FEW025 23/15 Q1016

Time: 17:02 (14:02 UTC)

Forecast

The report was made 3 hours and 2 minutes ago, at 11:00 UTC
Forecast valid from 21 at 12 UTC to 22 at 12 UTC
Wind 10 kt from the Northwest
Visibility 10 km or more
Few clouds at a height of 2500 ft

TAF: LGSR 211100Z 2112/2212 31010KT 9999 FEW025

Weather observations and forecasts of more than 4000 airports (METAR and TAF reports).

The available stations are represented by yellow and red dots on the map.

Hover mouse over dot to see the name of the station.

Then click to see weather observations and forecasts.

To change the map : click on the green buttons with a black cross to zoom in, on the green button with a dash to zoom out, or on the green arrows for adjacent maps.


METAR-TAF: